createdAt,value
2018-11-02T00:00:11.874Z,95852.38
2018-11-02T00:02:47.210Z,95851.59
2018-11-02T00:05:21.924Z,95859.75
2018-11-02T00:07:56.349Z,95860.89
2018-11-02T00:10:31.070Z,95866.08
2018-11-02T00:13:05.605Z,95875.91
2018-11-02T00:15:40.327Z,95873.50
2018-11-02T00:18:15.458Z,95874.61
2018-11-02T00:23:31.417Z,95877.83
2018-11-02T00:26:06.740Z,95877.14
2018-11-02T00:28:41.565Z,95875.19
2018-11-02T00:31:16.783Z,95873.39
2018-11-02T00:33:51.944Z,95872.42
2018-11-02T00:36:26.322Z,95875.97
2018-11-02T00:39:01.280Z,95877.44
2018-11-02T00:41:35.869Z,95879.70
2018-11-02T00:44:10.925Z,95882.88
2018-11-02T00:46:45.600Z,95875.92
2018-11-02T00:49:20.607Z,95870.87
2018-11-02T00:51:55.225Z,95859.88
2018-11-02T00:54:30.212Z,95865.53
2018-11-02T00:57:05.229Z,95872.95
2018-11-02T00:59:40.477Z,95858.71
2018-11-02T01:02:15.233Z,95861.59
2018-11-02T01:04:50.201Z,95857.06
2018-11-02T01:07:24.917Z,95852.17
2018-11-02T01:10:00.054Z,95857.96
2018-11-02T01:12:35.306Z,95861.59
2018-11-02T01:15:10.864Z,95859.10
2018-11-02T01:17:45.692Z,95861.03
2018-11-02T01:20:20.697Z,95863.22
2018-11-02T01:23:05.570Z,95863.75
2018-11-02T01:25:40.266Z,95865.31
2018-11-02T01:28:15.403Z,95861.90
2018-11-02T01:30:50.129Z,95858.14
2018-11-02T01:33:30.049Z,95867.33
2018-11-02T01:36:06.357Z,95868.44
2018-11-02T01:38:41.012Z,95869.58
2018-11-02T01:41:15.630Z,95865.53
2018-11-02T01:43:50.417Z,95862.17
2018-11-02T01:46:25.865Z,95858.27
2018-11-02T01:49:00.632Z,95856.02
2018-11-02T01:51:35.673Z,95852.47
2018-11-02T01:54:10.248Z,95850.40
2018-11-02T01:56:44.615Z,95858.77
2018-11-02T01:59:19.537Z,95848.45
2018-11-02T02:01:53.806Z,95845.72
2018-11-02T02:04:28.857Z,95850.88
2018-11-02T02:07:04.675Z,95840.91
2018-11-02T02:09:39.274Z,95851.36
2018-11-02T02:12:13.784Z,95843.49
2018-11-02T02:14:48.224Z,95839.89
2018-11-02T02:17:22.976Z,95843.02
2018-11-02T02:19:58.217Z,95848.02
2018-11-02T02:22:32.915Z,95843.22
2018-11-02T02:25:07.921Z,95840.64
2018-11-02T02:27:42.396Z,95841.45
2018-11-02T02:30:17.665Z,95845.32
2018-11-02T02:32:52.408Z,95845.83
2018-11-02T02:35:27.564Z,95846.79
2018-11-02T02:38:02.332Z,95846.46
2018-11-02T02:40:37.124Z,95846.61
2018-11-02T02:43:12.069Z,95850.28
2018-11-02T02:45:47.225Z,95844.16
2018-11-02T02:48:37.177Z,95857.33
2018-11-02T02:51:12.150Z,95852.56
2018-11-02T02:53:47.140Z,95856.73
2018-11-02T02:56:21.889Z,95862.70
2018-11-02T02:58:57.015Z,95870.20
2018-11-02T03:01:32.273Z,95869.78
2018-11-02T03:04:07.262Z,95873.45
2018-11-02T03:06:42.093Z,95872.03
2018-11-02T03:09:16.533Z,95871.41
2018-11-02T03:11:51.391Z,95878.92
2018-11-02T03:14:26.596Z,95875.46
2018-11-02T03:17:01.414Z,95871.34
2018-11-02T03:19:35.911Z,95871.13
2018-11-02T03:22:10.616Z,95877.77
2018-11-02T03:24:45.069Z,95883.70
2018-11-02T03:27:19.808Z,95883.89
2018-11-02T03:29:54.161Z,95880.13
2018-11-02T03:32:28.812Z,95888.35
2018-11-02T03:35:03.428Z,95890.78
2018-11-02T03:37:38.601Z,95887.25
2018-11-02T03:40:13.704Z,95882.71
2018-11-02T03:42:48.559Z,95878.84
2018-11-02T03:45:23.475Z,95876.89
2018-11-02T03:47:58.398Z,95883.81
2018-11-02T03:50:33.327Z,95889.79
2018-11-02T03:53:08.567Z,95892.52
2018-11-02T03:55:43.878Z,95894.62
2018-11-02T03:58:18.273Z,95903.77
2018-11-02T04:00:53.438Z,95903.35
2018-11-02T04:03:28.147Z,95897.81
2018-11-02T04:06:03.249Z,95895.02
2018-11-02T04:08:38.366Z,95884.52
2018-11-02T04:11:13.337Z,95887.23
2018-11-02T04:13:48.100Z,95886.57
2018-11-02T04:16:22.615Z,95886.53
2018-11-02T04:18:57.782Z,95897.18
2018-11-02T04:21:36.382Z,95890.92
2018-11-02T04:24:11.793Z,95895.41
2018-11-02T04:26:46.909Z,95889.59
2018-11-02T04:29:22.045Z,95887.74
2018-11-02T04:31:56.720Z,95894.60
2018-11-02T04:34:31.377Z,95907.06
2018-11-02T04:37:06.232Z,95908.16
2018-11-02T04:39:41.316Z,95917.48
2018-11-02T04:42:16.088Z,95918.48
2018-11-02T04:44:50.752Z,95924.92
2018-11-02T04:47:25.529Z,95929.61
2018-11-02T04:50:00.821Z,95927.70
2018-11-02T04:52:35.661Z,95932.56
2018-11-02T04:55:10.423Z,95929.84
2018-11-02T04:57:45.244Z,95939.09
2018-11-02T05:00:20.700Z,95940.86
2018-11-02T05:02:55.533Z,95945.73
2018-11-02T05:05:30.647Z,95952.84
2018-11-02T05:08:05.456Z,95951.89
2018-11-02T05:10:40.475Z,95955.76
2018-11-02T05:13:15.096Z,95962.88
2018-11-02T05:15:50.673Z,95955.95
2018-11-02T05:18:25.312Z,95951.45
2018-11-02T05:21:00.018Z,95961.77
2018-11-02T05:23:34.669Z,95966.12
2018-11-02T05:26:09.425Z,95970.80
2018-11-02T05:28:44.608Z,95979.21
2018-11-02T05:31:19.272Z,95977.59
2018-11-02T05:33:53.895Z,95978.06
2018-11-02T05:36:28.850Z,95978.55
2018-11-02T05:39:04.441Z,95975.63
2018-11-02T05:41:39.749Z,95975.63
2018-11-02T05:44:14.929Z,95974.15
2018-11-02T05:46:49.456Z,95982.08
2018-11-02T05:49:24.127Z,95991.25
2018-11-02T05:51:59.125Z,95995.12
2018-11-02T05:54:33.965Z,95992.20
2018-11-02T05:57:09.732Z,95995.60
2018-11-02T05:59:44.612Z,95990.59
2018-11-02T06:02:19.385Z,95988.81
2018-11-02T06:04:54.217Z,95980.31
2018-11-02T06:07:28.779Z,95978.83
2018-11-02T06:10:03.735Z,95988.15
2018-11-02T06:12:38.583Z,95992.56
2018-11-02T06:15:13.563Z,96000.86
2018-11-02T06:17:48.316Z,96002.43
2018-11-02T06:20:23.252Z,96010.73
2018-11-02T06:22:57.871Z,96009.48
2018-11-02T06:25:32.910Z,96008.58
2018-11-02T06:28:07.468Z,96012.30
2018-11-02T06:30:42.356Z,96021.48
2018-11-02T06:33:17.328Z,96018.39
2018-11-02T06:35:51.753Z,96025.47
2018-11-02T06:38:26.916Z,96025.03
2018-11-02T06:41:01.682Z,96025.84
2018-11-02T06:43:36.320Z,96034.41
2018-11-02T06:46:11.464Z,96026.84
2018-11-02T06:48:47.185Z,96024.67
2018-11-02T06:51:21.976Z,96038.88
2018-11-02T06:53:57.442Z,96050.28
2018-11-02T06:56:32.228Z,96053.34
2018-11-02T06:59:06.807Z,96059.02
2018-11-02T07:01:41.660Z,96060.98
2018-11-02T07:04:17.147Z,96068.18
2018-11-02T07:06:51.848Z,96068.70
2018-11-02T07:09:26.256Z,96065.20
2018-11-02T07:12:01.592Z,96064.80
2018-11-02T07:14:36.263Z,96068.04
2018-11-02T07:17:11.233Z,96062.25
2018-11-02T07:19:45.668Z,96075.25
2018-11-02T07:22:20.736Z,96081.30
2018-11-02T07:24:55.833Z,96083.14
2018-11-02T07:27:31.692Z,96084.20
2018-11-02T07:30:07.471Z,96081.03
2018-11-02T07:32:42.345Z,96071.61
2018-11-02T07:35:17.448Z,96067.64
2018-11-02T07:37:51.994Z,96057.73
2018-11-02T07:40:27.125Z,96069.66
2018-11-02T07:43:01.830Z,96067.47
2018-11-02T07:45:36.583Z,96064.66
2018-11-02T07:48:11.581Z,96066.86
2018-11-02T07:50:46.243Z,96065.19
2018-11-02T07:53:21.806Z,96081.64
2018-11-02T07:55:57.193Z,96085.44
2018-11-02T07:58:31.946Z,96078.41
2018-11-02T08:01:06.760Z,96081.69
2018-11-02T08:03:42.301Z,96082.09
2018-11-02T08:06:17.209Z,96080.53
2018-11-02T08:08:52.497Z,96083.50
2018-11-02T08:11:27.703Z,96083.87
2018-11-02T08:14:02.256Z,96077.96
2018-11-02T08:16:37.808Z,96077.67
2018-11-02T08:19:12.765Z,96076.87
2018-11-02T08:21:47.317Z,96077.23
2018-11-02T08:24:21.690Z,96086.81
2018-11-02T08:26:56.436Z,96084.70
2018-11-02T08:29:30.841Z,96079.32
2018-11-02T08:32:05.212Z,96088.73
2018-11-02T08:34:40.023Z,96089.52
2018-11-02T08:37:14.725Z,96099.23
2018-11-02T08:39:49.335Z,96089.30
2018-11-02T08:42:23.932Z,96087.48
2018-11-02T08:44:58.432Z,96075.05
2018-11-02T08:47:33.133Z,96089.91
2018-11-02T08:50:08.974Z,96099.10
2018-11-02T08:52:43.506Z,96099.88
2018-11-02T08:55:17.999Z,96103.41
2018-11-02T08:57:52.465Z,96109.06
2018-11-02T09:00:27.146Z,96102.52
2018-11-02T09:03:01.804Z,96106.22
2018-11-02T09:05:36.748Z,96100.83
2018-11-02T09:08:11.502Z,96101.88
2018-11-02T09:10:46.025Z,96100.70
2018-11-02T09:13:20.745Z,96096.54
2018-11-02T09:15:55.848Z,96100.80
2018-11-02T09:18:30.671Z,96097.25
2018-11-02T09:21:05.400Z,96092.17
2018-11-02T09:23:39.899Z,96087.84
2018-11-02T09:26:14.455Z,96097.52
2018-11-02T09:28:49.523Z,96099.91
2018-11-02T09:31:24.752Z,96092.46
2018-11-02T09:33:59.433Z,96099.22
2018-11-02T09:36:34.013Z,96105.19
2018-11-02T09:39:11.660Z,96108.22
2018-11-02T09:41:46.388Z,96109.23
2018-11-02T09:44:21.605Z,96106.80
2018-11-02T09:46:56.323Z,96087.67
2018-11-02T09:49:31.545Z,96077.83
2018-11-02T09:52:06.238Z,96079.19
2018-11-02T09:54:41.020Z,96085.84
2018-11-02T09:57:15.632Z,96091.50
2018-11-02T09:59:50.606Z,96083.94
2018-11-02T10:02:25.509Z,96078.69
2018-11-02T10:05:00.865Z,96081.92
2018-11-02T10:07:37.008Z,96081.38
2018-11-02T10:10:13.109Z,96078.75
2018-11-02T10:12:47.955Z,96079.25
2018-11-02T10:15:22.830Z,96096.94
2018-11-02T10:17:57.793Z,96089.41
2018-11-02T10:20:32.760Z,96069.50
2018-11-02T10:23:07.840Z,96056.59
2018-11-02T10:25:43.537Z,96058.66
2018-11-02T10:28:18.257Z,96059.67
2018-11-02T10:30:53.020Z,96055.00
2018-11-02T10:33:27.864Z,96055.38
2018-11-02T10:36:02.915Z,96054.51
2018-11-02T10:38:37.947Z,96042.95
2018-11-02T10:41:14.952Z,96051.34
2018-11-02T10:43:50.536Z,96069.75
2018-11-02T10:46:25.450Z,96072.90
2018-11-02T10:49:00.768Z,96068.65
2018-11-02T10:51:36.412Z,96064.84
2018-11-02T10:54:11.901Z,96065.11
2018-11-02T10:56:47.202Z,96054.42
2018-11-02T10:59:22.385Z,96058.69
2018-11-02T11:02:02.573Z,96057.54
2018-11-02T11:04:38.865Z,96067.65
2018-11-02T11:07:14.116Z,96066.66
2018-11-02T11:09:49.988Z,96076.68
2018-11-02T11:12:25.612Z,96074.83
2018-11-02T11:15:00.824Z,96075.09
2018-11-02T11:17:35.933Z,96080.00
2018-11-02T11:20:12.081Z,96069.01
2018-11-02T11:22:47.020Z,96067.15
2018-11-02T11:25:21.880Z,96066.66
2018-11-02T11:27:56.985Z,96058.55
2018-11-02T11:30:32.555Z,96069.18
2018-11-02T11:33:07.556Z,96062.41
2018-11-02T11:35:42.739Z,96060.08
2018-11-02T11:38:17.348Z,96055.86
2018-11-02T11:40:52.188Z,96060.33
2018-11-02T11:43:27.456Z,96064.44
2018-11-02T11:46:02.566Z,96070.65
2018-11-02T11:48:37.669Z,96072.48
2018-11-02T11:51:13.249Z,96076.77
2018-11-02T11:53:48.353Z,96078.76
2018-11-02T11:56:23.155Z,96081.09
2018-11-02T11:58:57.885Z,96086.37
2018-11-02T12:01:32.979Z,96081.66
2018-11-02T12:04:07.650Z,96088.50
2018-11-02T12:06:42.805Z,96084.45
2018-11-02T12:09:21.580Z,96078.80
2018-11-02T12:11:57.000Z,96075.14
2018-11-02T12:14:32.328Z,96071.91
2018-11-02T12:17:07.462Z,96072.27
2018-11-02T12:19:42.689Z,96072.09
2018-11-02T12:22:17.779Z,96087.80
2018-11-02T12:24:53.152Z,96091.34
2018-11-02T12:27:28.096Z,96084.56
2018-11-02T12:30:03.550Z,96082.40
2018-11-02T12:32:38.648Z,96072.23
2018-11-02T12:35:14.958Z,96067.32
2018-11-02T12:37:49.964Z,96062.58
2018-11-02T12:40:25.140Z,96055.50
2018-11-02T12:42:59.876Z,96054.20
2018-11-02T12:45:34.557Z,96046.13
2018-11-02T12:48:12.126Z,96040.51
2018-11-02T12:50:47.376Z,96045.42
2018-11-02T12:53:22.256Z,96038.52
2018-11-02T12:55:57.258Z,96040.40
2018-11-02T12:58:31.992Z,96047.36
2018-11-02T13:01:07.449Z,96045.34
2018-11-02T13:03:42.205Z,96051.25
2018-11-02T13:06:16.792Z,96035.66
2018-11-02T13:08:51.516Z,96035.41
2018-11-02T13:11:26.361Z,96030.47
2018-11-02T13:14:00.971Z,96037.66
2018-11-02T13:16:35.785Z,96036.91
2018-11-02T13:19:10.800Z,96041.26
2018-11-02T13:21:45.727Z,96032.56
2018-11-02T13:24:20.493Z,96047.31
2018-11-02T13:26:55.204Z,96052.66
2018-11-02T13:29:32.557Z,96053.16
2018-11-02T13:32:14.284Z,96057.14
2018-11-02T13:34:54.581Z,96055.55
2018-11-02T13:37:29.328Z,96056.22
2018-11-02T13:40:04.235Z,96062.39
2018-11-02T13:42:40.160Z,96058.69
2018-11-02T13:45:17.078Z,96061.66
2018-11-02T13:47:52.163Z,96063.64
2018-11-02T13:50:27.219Z,96069.48
2018-11-02T13:53:02.908Z,96074.52
2018-11-02T13:55:41.359Z,96072.84
2018-11-02T13:58:16.140Z,96076.11
2018-11-02T14:00:51.453Z,96075.33
2018-11-02T14:03:26.084Z,96078.85
2018-11-02T14:06:00.996Z,96074.50
2018-11-02T14:08:35.958Z,96073.40
2018-11-02T14:11:10.796Z,96067.79
2018-11-02T14:13:45.990Z,96071.09
2018-11-02T14:16:20.677Z,96064.55
2018-11-02T14:18:55.474Z,96068.03
2018-11-02T14:21:30.025Z,96062.69
2018-11-02T14:24:05.755Z,96074.52
2018-11-02T14:26:40.623Z,96074.07
2018-11-02T14:29:16.032Z,96085.66
2018-11-02T14:31:50.836Z,96093.66
2018-11-02T14:34:25.708Z,96079.23
2018-11-02T14:37:06.705Z,96075.06
2018-11-02T14:39:42.229Z,96079.50
2018-11-02T14:42:17.107Z,96083.94
2018-11-02T14:44:52.329Z,96084.93
2018-11-02T14:47:36.848Z,96094.19
2018-11-02T14:50:12.155Z,96106.53
2018-11-02T14:52:47.272Z,96114.52
2018-11-02T14:55:22.074Z,96127.05
2018-11-02T14:57:57.029Z,96128.87
2018-11-02T15:00:31.926Z,96123.39
2018-11-02T15:03:06.732Z,96120.04
2018-11-02T15:05:41.437Z,96119.09
2018-11-02T15:08:16.121Z,96118.97
2018-11-02T15:10:50.769Z,96125.19
2018-11-02T15:13:25.828Z,96135.59
2018-11-02T15:16:00.492Z,96139.18
2018-11-02T15:18:35.510Z,96141.60
2018-11-02T15:21:10.489Z,96143.91
2018-11-02T15:23:45.724Z,96144.77
2018-11-02T15:26:20.763Z,96147.22
2018-11-02T15:28:56.170Z,96154.88
2018-11-02T15:31:31.274Z,96154.88
2018-11-02T15:34:07.055Z,96160.41
2018-11-02T15:36:41.921Z,96175.06
2018-11-02T15:39:16.751Z,96179.77
2018-11-02T15:41:51.485Z,96176.54
2018-11-02T15:44:26.832Z,96176.39
2018-11-02T15:47:04.708Z,96179.80
2018-11-02T15:49:39.600Z,96186.14
2018-11-02T15:52:14.259Z,96187.28
2018-11-02T15:54:49.428Z,96196.38
2018-11-02T15:57:24.248Z,96205.16
2018-11-02T15:59:59.061Z,96198.02
2018-11-02T16:02:38.458Z,96207.61
2018-11-02T16:05:13.300Z,96201.73
2018-11-02T16:07:47.968Z,96201.41
2018-11-02T16:10:23.604Z,96213.58
2018-11-02T16:12:58.369Z,96222.84
2018-11-02T16:15:33.141Z,96225.62
2018-11-02T16:18:08.344Z,96224.97
2018-11-02T16:20:43.637Z,96224.01
2018-11-02T16:23:18.298Z,96232.43
2018-11-02T16:25:52.996Z,96236.02
2018-11-02T16:28:27.868Z,96241.22
2018-11-02T16:31:02.603Z,96239.60
2018-11-02T16:33:37.982Z,96248.86
2018-11-02T16:36:12.626Z,96249.81
2018-11-02T16:38:47.688Z,96252.92
2018-11-02T16:41:22.712Z,96254.72
2018-11-02T16:43:57.541Z,96256.80
2018-11-02T16:46:32.380Z,96261.84
2018-11-02T16:49:07.253Z,96259.41
2018-11-02T16:51:42.365Z,96253.89
2018-11-02T16:54:17.152Z,96259.73
2018-11-02T16:56:52.743Z,96264.28
2018-11-02T16:59:27.738Z,96266.37
2018-11-02T17:02:02.906Z,96270.42
2018-11-02T17:04:37.720Z,96273.35
2018-11-02T17:07:12.536Z,96274.81
2018-11-02T17:09:47.440Z,96284.40
2018-11-02T17:12:22.224Z,96278.36
2018-11-02T17:14:56.833Z,96293.98
2018-11-02T17:17:31.790Z,96297.38
2018-11-02T17:20:11.817Z,96294.30
2018-11-02T17:22:47.742Z,96295.44
2018-11-02T17:25:22.488Z,96298.03
2018-11-02T17:27:59.292Z,96303.39
2018-11-02T17:31:02.924Z,96307.94
2018-11-02T17:33:42.861Z,96304.98
2018-11-02T17:36:17.789Z,96298.81
2018-11-02T17:41:30.340Z,96299.33
2018-11-02T17:44:05.681Z,96305.31
2018-11-02T17:46:40.532Z,96317.16
2018-11-02T17:49:15.851Z,96309.36
2018-11-02T17:51:50.575Z,96319.91
2018-11-02T17:54:25.013Z,96316.67
2018-11-02T17:56:59.787Z,96317.00
2018-11-02T17:59:34.387Z,96339.08
2018-11-02T18:02:09.046Z,96342.48
2018-11-02T18:04:43.814Z,96335.67
2018-11-02T18:07:19.634Z,96338.09
2018-11-02T18:09:54.767Z,96324.14
2018-11-02T18:12:29.797Z,96327.87
2018-11-02T18:15:05.134Z,96329.00
2018-11-02T18:17:40.381Z,96328.19
2018-11-02T18:20:16.051Z,96326.56
2018-11-02T18:22:50.748Z,96316.83
2018-11-02T18:25:25.727Z,96322.99
2018-11-02T18:28:00.444Z,96319.75
2018-11-02T18:30:35.029Z,96331.08
2018-11-02T18:33:09.676Z,96333.19
2018-11-02T18:35:44.301Z,96339.68
2018-11-02T18:38:19.292Z,96338.05
2018-11-02T18:40:54.184Z,96341.45
2018-11-02T18:43:29.061Z,96339.67
2018-11-02T18:46:03.985Z,96340.16
2018-11-02T18:48:38.444Z,96334.96
2018-11-02T18:51:13.267Z,96336.59
2018-11-02T18:53:48.288Z,96335.66
2018-11-02T18:56:23.084Z,96330.59
2018-11-02T18:58:58.286Z,96333.02
2018-11-02T19:01:33.068Z,96340.00
2018-11-02T19:04:08.105Z,96329.13
2018-11-02T19:06:42.833Z,96326.69
2018-11-02T19:09:17.340Z,96326.19
2018-11-02T19:11:52.987Z,96323.76
2018-11-02T19:14:28.104Z,96329.92
2018-11-02T19:17:03.061Z,96332.84
2018-11-02T19:19:38.139Z,96323.59
2018-11-02T19:22:12.901Z,96319.86
2018-11-02T19:24:48.080Z,96320.83
2018-11-02T19:27:23.123Z,96323.88
2018-11-02T19:29:58.405Z,96327.44
2018-11-02T19:32:33.796Z,96326.46
2018-11-02T19:35:09.595Z,96338.95
2018-11-02T19:37:44.721Z,96344.95
2018-11-02T19:40:20.002Z,96352.91
2018-11-02T19:42:54.740Z,96354.84
2018-11-02T19:45:29.980Z,96351.44
2018-11-02T19:48:06.053Z,96349.81
2018-11-02T19:50:40.947Z,96352.08
2018-11-02T19:53:15.807Z,96360.52
2018-11-02T19:55:50.989Z,96363.55
2018-11-02T19:58:25.736Z,96369.21
2018-11-02T20:01:00.435Z,96372.94
2018-11-02T20:03:35.228Z,96378.94
2018-11-02T20:06:10.264Z,96389.31
2018-11-02T20:08:45.650Z,96390.29
2018-11-02T20:11:20.569Z,96383.95
2018-11-02T20:13:55.213Z,96384.61
2018-11-02T20:16:30.222Z,96382.52
2018-11-02T20:19:04.728Z,96380.89
2018-11-02T20:21:39.881Z,96388.03
2018-11-02T20:24:15.020Z,96386.89
2018-11-02T20:26:49.884Z,96385.25
2018-11-02T20:29:24.520Z,96390.93
2018-11-02T20:31:59.725Z,96389.95
2018-11-02T20:34:34.773Z,96383.75
2018-11-02T20:37:09.556Z,96384.11
2018-11-02T20:39:44.656Z,96388.34
2018-11-02T20:42:19.276Z,96389.01
2018-11-02T20:44:53.963Z,96392.90
2018-11-02T20:47:32.888Z,96397.94
2018-11-02T20:50:09.011Z,96402.97
2018-11-02T20:52:43.793Z,96403.78
2018-11-02T20:58:06.242Z,96405.73
2018-11-02T21:00:41.369Z,96410.60
2018-11-02T21:03:17.504Z,96411.90
2018-11-02T21:05:52.453Z,96413.68
2018-11-02T21:08:27.521Z,96415.46
2018-11-02T21:11:02.548Z,96409.61
2018-11-02T21:13:37.291Z,96412.70
2018-11-02T21:16:12.116Z,96417.63
2018-11-02T21:18:47.133Z,96414.38
2018-11-02T21:21:23.495Z,96418.61
2018-11-02T21:24:06.244Z,96413.90
2018-11-02T21:26:51.196Z,96411.48
2018-11-02T21:29:25.609Z,96415.85
2018-11-02T21:32:00.581Z,96414.71
2018-11-02T21:34:35.370Z,96424.13
2018-11-02T21:37:10.021Z,96428.68
2018-11-02T21:39:44.661Z,96429.48
2018-11-02T21:42:19.711Z,96431.10
2018-11-02T21:44:54.216Z,96429.64
2018-11-02T21:47:28.753Z,96439.56
2018-11-02T21:50:03.506Z,96434.05
2018-11-02T21:52:37.820Z,96431.79
2018-11-02T21:55:12.515Z,96427.61
2018-11-02T21:57:47.684Z,96431.20
2018-11-02T22:00:24.172Z,96423.24
2018-11-02T22:02:58.975Z,96414.48
2018-11-02T22:05:34.079Z,96422.28
2018-11-02T22:08:09.029Z,96413.52
2018-11-02T22:10:43.901Z,96416.77
2018-11-02T22:13:18.661Z,96426.02
2018-11-02T22:15:53.328Z,96421.47
2018-11-02T22:18:28.229Z,96418.20
2018-11-02T22:21:03.206Z,96411.39
2018-11-02T22:23:38.224Z,96416.27
2018-11-02T22:26:14.084Z,96413.19
2018-11-02T22:28:48.831Z,96413.20
2018-11-02T22:31:23.801Z,96408.65
2018-11-02T22:33:58.767Z,96414.02
2018-11-02T22:36:33.536Z,96409.47
2018-11-02T22:39:11.344Z,96414.05
2018-11-02T22:44:25.427Z,96419.74
2018-11-02T22:47:03.797Z,96433.86
2018-11-02T22:49:39.170Z,96433.17
2018-11-02T22:52:14.252Z,96439.34
2018-11-02T22:54:55.907Z,96441.50
2018-11-02T22:57:30.837Z,96440.96
2018-11-02T23:00:13.456Z,96447.28
2018-11-02T23:02:48.786Z,96451.33
2018-11-02T23:05:27.890Z,96452.48
2018-11-02T23:08:03.009Z,96454.92
2018-11-02T23:10:37.722Z,96460.31
2018-11-02T23:13:12.568Z,96461.74
2018-11-02T23:15:47.393Z,96462.23
2018-11-02T23:18:22.298Z,96460.80
2018-11-02T23:20:57.061Z,96459.50
2018-11-02T23:23:31.665Z,96465.52
2018-11-02T23:26:07.102Z,96464.54
2018-11-02T23:28:42.293Z,96461.46
2018-11-02T23:31:17.572Z,96461.28
2018-11-02T23:33:52.347Z,96453.62
2018-11-02T23:36:27.117Z,96459.13
2018-11-02T23:39:02.538Z,96461.88
2018-11-02T23:41:42.222Z,96460.91
2018-11-02T23:44:16.909Z,96458.64
2018-11-02T23:46:51.646Z,96453.12
2018-11-02T23:49:26.248Z,96460.76
2018-11-02T23:52:01.051Z,96455.72
2018-11-02T23:54:35.979Z,96453.61
2018-11-02T23:57:10.609Z,96447.11
2018-11-02T23:59:45.435Z,96447.59
